sensor_id;sensor_type;location;lat;lon;timestamp;P1;durP1;ratioP1;P2;durP2;ratioP2
19111;SDS011;9688;51.906;8.376;2022-07-29T00:02:49;5.60;;;1.33;;
19111;SDS011;9688;51.906;8.376;2022-07-29T00:05:55;6.53;;;1.70;;
19111;SDS011;9688;51.906;8.376;2022-07-29T00:08:59;7.70;;;1.50;;
19111;SDS011;9688;51.906;8.376;2022-07-29T00:12:04;5.20;;;1.90;;
19111;SDS011;9688;51.906;8.376;2022-07-29T00:15:09;4.90;;;2.23;;
19111;SDS011;9688;51.906;8.376;2022-07-29T00:18:14;4.47;;;1.50;;
19111;SDS011;9688;51.906;8.376;2022-07-29T00:21:20;4.47;;;1.70;;
19111;SDS011;9688;51.906;8.376;2022-07-29T00:24:25;3.80;;;1.40;;
19111;SDS011;9688;51.906;8.376;2022-07-29T00:27:30;9.37;;;2.00;;
19111;SDS011;9688;51.906;8.376;2022-07-29T00:30:35;3.37;;;1.77;;
19111;SDS011;9688;51.906;8.376;2022-07-29T00:33:40;6.03;;;1.53;;
19111;SDS011;9688;51.906;8.376;2022-07-29T00:36:46;4.03;;;1.67;;
19111;SDS011;9688;51.906;8.376;2022-07-29T00:39:50;4.07;;;1.40;;
19111;SDS011;9688;51.906;8.376;2022-07-29T00:42:54;3.20;;;1.43;;
19111;SDS011;9688;51.906;8.376;2022-07-29T00:45:59;5.97;;;1.70;;
19111;SDS011;9688;51.906;8.376;2022-07-29T00:49:04;3.87;;;1.57;;
19111;SDS011;9688;51.906;8.376;2022-07-29T00:52:11;2.00;;;1.60;;
19111;SDS011;9688;51.906;8.376;2022-07-29T00:55:16;2.67;;;1.80;;
19111;SDS011;9688;51.906;8.376;2022-07-29T00:58:22;4.57;;;1.60;;
19111;SDS011;9688;51.906;8.376;2022-07-29T01:01:27;3.40;;;1.70;;
19111;SDS011;9688;51.906;8.376;2022-07-29T01:04:32;3.87;;;1.60;;
19111;SDS011;9688;51.906;8.376;2022-07-29T01:07:38;6.63;;;1.90;;
19111;SDS011;9688;51.906;8.376;2022-07-29T01:10:43;7.80;;;1.60;;
19111;SDS011;9688;51.906;8.376;2022-07-29T01:13:49;5.57;;;1.50;;
19111;SDS011;9688;51.906;8.376;2022-07-29T01:16:54;3.47;;;1.50;;
19111;SDS011;9688;51.906;8.376;2022-07-29T01:20:06;7.73;;;1.70;;
19111;SDS011;9688;51.906;8.376;2022-07-29T01:23:32;4.17;;;1.57;;
19111;SDS011;9688;51.906;8.376;2022-07-29T01:26:57;1.60;;;1.50;;
19111;SDS011;9688;51.906;8.376;2022-07-29T01:30:09;3.37;;;1.53;;
19111;SDS011;9688;51.906;8.376;2022-07-29T01:33:17;4.90;;;1.37;;
19111;SDS011;9688;51.906;8.376;2022-07-29T01:36:40;4.03;;;1.53;;
19111;SDS011;9688;51.906;8.376;2022-07-29T01:39:50;5.53;;;1.80;;
19111;SDS011;9688;51.906;8.376;2022-07-29T01:42:58;7.93;;;1.73;;
19111;SDS011;9688;51.906;8.376;2022-07-29T01:46:09;4.67;;;1.70;;
19111;SDS011;9688;51.906;8.376;2022-07-29T01:49:20;1.67;;;1.50;;
19111;SDS011;9688;51.906;8.376;2022-07-29T01:52:30;8.87;;;1.67;;
19111;SDS011;9688;51.906;8.376;2022-07-29T01:55:39;10.00;;;1.70;;
19111;SDS011;9688;51.906;8.376;2022-07-29T01:58:48;2.53;;;1.60;;
19111;SDS011;9688;51.906;8.376;2022-07-29T02:01:57;5.03;;;1.53;;
19111;SDS011;9688;51.906;8.376;2022-07-29T02:05:03;6.10;;;1.63;;
19111;SDS011;9688;51.906;8.376;2022-07-29T02:08:13;7.93;;;1.83;;
19111;SDS011;9688;51.906;8.376;2022-07-29T02:11:20;4.57;;;1.80;;
19111;SDS011;9688;51.906;8.376;2022-07-29T02:14:26;2.90;;;1.60;;
19111;SDS011;9688;51.906;8.376;2022-07-29T02:17:38;3.53;;;1.93;;
19111;SDS011;9688;51.906;8.376;2022-07-29T02:20:46;3.63;;;1.60;;
19111;SDS011;9688;51.906;8.376;2022-07-29T02:23:53;8.63;;;2.10;;
19111;SDS011;9688;51.906;8.376;2022-07-29T02:27:00;4.03;;;1.77;;
19111;SDS011;9688;51.906;8.376;2022-07-29T02:30:07;4.70;;;1.40;;
19111;SDS011;9688;51.906;8.376;2022-07-29T02:33:16;4.13;;;1.60;;
19111;SDS011;9688;51.906;8.376;2022-07-29T02:36:23;5.07;;;1.50;;
19111;SDS011;9688;51.906;8.376;2022-07-29T02:39:30;3.23;;;1.60;;
19111;SDS011;9688;51.906;8.376;2022-07-29T02:42:36;4.67;;;2.10;;
19111;SDS011;9688;51.906;8.376;2022-07-29T02:45:43;2.97;;;1.60;;
19111;SDS011;9688;51.906;8.376;2022-07-29T02:48:51;2.00;;;1.47;;
19111;SDS011;9688;51.906;8.376;2022-07-29T02:52:01;4.57;;;1.60;;
19111;SDS011;9688;51.906;8.376;2022-07-29T02:55:08;4.47;;;1.60;;
19111;SDS011;9688;51.906;8.376;2022-07-29T02:58:19;3.93;;;1.53;;
19111;SDS011;9688;51.906;8.376;2022-07-29T03:01:31;7.90;;;1.70;;
19111;SDS011;9688;51.906;8.376;2022-07-29T03:04:39;3.60;;;1.50;;
19111;SDS011;9688;51.906;8.376;2022-07-29T03:07:46;4.93;;;1.73;;
19111;SDS011;9688;51.906;8.376;2022-07-29T03:10:55;6.13;;;1.70;;
19111;SDS011;9688;51.906;8.376;2022-07-29T03:14:00;2.87;;;1.57;;
19111;SDS011;9688;51.906;8.376;2022-07-29T03:17:06;5.33;;;1.70;;
19111;SDS011;9688;51.906;8.376;2022-07-29T03:20:18;5.10;;;1.83;;
19111;SDS011;9688;51.906;8.376;2022-07-29T03:23:23;4.83;;;1.90;;
19111;SDS011;9688;51.906;8.376;2022-07-29T03:26:30;6.57;;;1.90;;
19111;SDS011;9688;51.906;8.376;2022-07-29T03:29:35;8.17;;;2.33;;
19111;SDS011;9688;51.906;8.376;2022-07-29T03:32:40;4.50;;;2.07;;
19111;SDS011;9688;51.906;8.376;2022-07-29T03:35:46;5.67;;;2.17;;
19111;SDS011;9688;51.906;8.376;2022-07-29T03:38:51;5.37;;;1.80;;
19111;SDS011;9688;51.906;8.376;2022-07-29T03:41:57;3.63;;;1.83;;
19111;SDS011;9688;51.906;8.376;2022-07-29T03:45:06;6.23;;;2.10;;
19111;SDS011;9688;51.906;8.376;2022-07-29T03:48:13;5.43;;;2.00;;
19111;SDS011;9688;51.906;8.376;2022-07-29T03:51:21;8.00;;;2.10;;
19111;SDS011;9688;51.906;8.376;2022-07-29T03:54:26;4.77;;;1.97;;
19111;SDS011;9688;51.906;8.376;2022-07-29T03:57:31;6.33;;;2.00;;
19111;SDS011;9688;51.906;8.376;2022-07-29T04:00:38;5.60;;;2.00;;
19111;SDS011;9688;51.906;8.376;2022-07-29T04:03:44;3.33;;;1.83;;
19111;SDS011;9688;51.906;8.376;2022-07-29T04:06:51;5.50;;;2.07;;
19111;SDS011;9688;51.906;8.376;2022-07-29T04:09:55;4.53;;;1.60;;
19111;SDS011;9688;51.906;8.376;2022-07-29T04:12:59;4.20;;;2.13;;
19111;SDS011;9688;51.906;8.376;2022-07-29T04:16:12;5.10;;;1.70;;
19111;SDS011;9688;51.906;8.376;2022-07-29T04:19:16;8.07;;;1.90;;
19111;SDS011;9688;51.906;8.376;2022-07-29T04:22:22;9.13;;;2.30;;
19111;SDS011;9688;51.906;8.376;2022-07-29T04:25:27;6.10;;;2.07;;
19111;SDS011;9688;51.906;8.376;2022-07-29T04:28:31;4.87;;;2.20;;
19111;SDS011;9688;51.906;8.376;2022-07-29T04:31:37;7.97;;;2.20;;
19111;SDS011;9688;51.906;8.376;2022-07-29T04:34:41;8.23;;;2.50;;
19111;SDS011;9688;51.906;8.376;2022-07-29T04:37:49;3.57;;;1.97;;
19111;SDS011;9688;51.906;8.376;2022-07-29T04:40:54;11.13;;;2.30;;
19111;SDS011;9688;51.906;8.376;2022-07-29T04:43:59;4.27;;;2.07;;
19111;SDS011;9688;51.906;8.376;2022-07-29T04:47:07;7.00;;;2.40;;
19111;SDS011;9688;51.906;8.376;2022-07-29T04:50:13;5.80;;;2.03;;
19111;SDS011;9688;51.906;8.376;2022-07-29T04:53:19;3.73;;;1.87;;
19111;SDS011;9688;51.906;8.376;2022-07-29T04:56:24;6.23;;;1.80;;
19111;SDS011;9688;51.906;8.376;2022-07-29T04:59:29;4.13;;;2.07;;
19111;SDS011;9688;51.906;8.376;2022-07-29T05:02:34;3.17;;;2.10;;
19111;SDS011;9688;51.906;8.376;2022-07-29T05:05:38;9.00;;;2.00;;
19111;SDS011;9688;51.906;8.376;2022-07-29T05:08:45;4.63;;;1.60;;
19111;SDS011;9688;51.906;8.376;2022-07-29T05:11:49;3.90;;;1.67;;
19111;SDS011;9688;51.906;8.376;2022-07-29T05:14:55;6.43;;;1.80;;
19111;SDS011;9688;51.906;8.376;2022-07-29T05:18:00;8.50;;;2.20;;
19111;SDS011;9688;51.906;8.376;2022-07-29T05:21:04;10.17;;;2.03;;
19111;SDS011;9688;51.906;8.376;2022-07-29T05:24:11;6.03;;;1.87;;
19111;SDS011;9688;51.906;8.376;2022-07-29T05:27:16;6.73;;;2.20;;
19111;SDS011;9688;51.906;8.376;2022-07-29T05:30:20;4.07;;;2.10;;
19111;SDS011;9688;51.906;8.376;2022-07-29T05:33:25;6.20;;;1.90;;
19111;SDS011;9688;51.906;8.376;2022-07-29T05:36:31;4.43;;;1.90;;
19111;SDS011;9688;51.906;8.376;2022-07-29T05:39:37;6.43;;;2.20;;
19111;SDS011;9688;51.906;8.376;2022-07-29T05:42:42;8.20;;;2.23;;
19111;SDS011;9688;51.906;8.376;2022-07-29T05:45:46;5.17;;;1.90;;
19111;SDS011;9688;51.906;8.376;2022-07-29T05:48:51;4.63;;;1.70;;
19111;SDS011;9688;51.906;8.376;2022-07-29T05:51:57;7.83;;;2.00;;
19111;SDS011;9688;51.906;8.376;2022-07-29T05:55:03;3.90;;;1.90;;
19111;SDS011;9688;51.906;8.376;2022-07-29T05:58:09;8.10;;;1.90;;
19111;SDS011;9688;51.906;8.376;2022-07-29T06:01:13;4.67;;;2.10;;
19111;SDS011;9688;51.906;8.376;2022-07-29T06:04:18;5.27;;;2.20;;
19111;SDS011;9688;51.906;8.376;2022-07-29T06:07:23;6.53;;;2.07;;
19111;SDS011;9688;51.906;8.376;2022-07-29T06:10:29;4.37;;;1.67;;
19111;SDS011;9688;51.906;8.376;2022-07-29T06:13:33;2.67;;;2.00;;
19111;SDS011;9688;51.906;8.376;2022-07-29T06:16:38;5.77;;;1.93;;
19111;SDS011;9688;51.906;8.376;2022-07-29T06:19:43;4.83;;;2.30;;
19111;SDS011;9688;51.906;8.376;2022-07-29T06:22:48;10.57;;;2.50;;
19111;SDS011;9688;51.906;8.376;2022-07-29T06:25:54;7.90;;;1.90;;
19111;SDS011;9688;51.906;8.376;2022-07-29T06:28:58;8.97;;;1.97;;
19111;SDS011;9688;51.906;8.376;2022-07-29T06:32:04;5.93;;;2.10;;
19111;SDS011;9688;51.906;8.376;2022-07-29T06:35:10;3.60;;;2.00;;
19111;SDS011;9688;51.906;8.376;2022-07-29T06:38:15;5.00;;;2.43;;
19111;SDS011;9688;51.906;8.376;2022-07-29T06:41:21;3.67;;;1.80;;
19111;SDS011;9688;51.906;8.376;2022-07-29T06:44:26;5.83;;;1.60;;
19111;SDS011;9688;51.906;8.376;2022-07-29T06:47:31;4.47;;;1.87;;
19111;SDS011;9688;51.906;8.376;2022-07-29T06:50:35;5.07;;;1.87;;
19111;SDS011;9688;51.906;8.376;2022-07-29T06:53:40;3.90;;;1.83;;
19111;SDS011;9688;51.906;8.376;2022-07-29T06:56:48;9.77;;;2.00;;
19111;SDS011;9688;51.906;8.376;2022-07-29T06:59:55;7.60;;;2.10;;
19111;SDS011;9688;51.906;8.376;2022-07-29T07:03:00;6.10;;;2.17;;
19111;SDS011;9688;51.906;8.376;2022-07-29T07:06:05;6.97;;;2.13;;
19111;SDS011;9688;51.906;8.376;2022-07-29T07:09:09;8.97;;;2.00;;
19111;SDS011;9688;51.906;8.376;2022-07-29T07:12:16;2.10;;;1.97;;
19111;SDS011;9688;51.906;8.376;2022-07-29T07:15:22;5.47;;;1.53;;
19111;SDS011;9688;51.906;8.376;2022-07-29T07:18:27;5.87;;;1.83;;
19111;SDS011;9688;51.906;8.376;2022-07-29T07:21:32;4.13;;;1.60;;
19111;SDS011;9688;51.906;8.376;2022-07-29T07:24:38;11.13;;;2.37;;
19111;SDS011;9688;51.906;8.376;2022-07-29T07:27:46;3.80;;;1.67;;
19111;SDS011;9688;51.906;8.376;2022-07-29T07:30:52;4.77;;;1.93;;
19111;SDS011;9688;51.906;8.376;2022-07-29T07:33:56;4.13;;;1.60;;
19111;SDS011;9688;51.906;8.376;2022-07-29T07:37:02;3.80;;;1.60;;
19111;SDS011;9688;51.906;8.376;2022-07-29T07:40:07;7.30;;;1.70;;
19111;SDS011;9688;51.906;8.376;2022-07-29T07:43:15;3.90;;;2.10;;
19111;SDS011;9688;51.906;8.376;2022-07-29T07:46:20;3.30;;;1.87;;
19111;SDS011;9688;51.906;8.376;2022-07-29T07:49:25;4.63;;;1.90;;
19111;SDS011;9688;51.906;8.376;2022-07-29T07:52:29;5.13;;;1.50;;
19111;SDS011;9688;51.906;8.376;2022-07-29T07:55:38;2.03;;;1.40;;
19111;SDS011;9688;51.906;8.376;2022-07-29T07:58:45;2.87;;;1.90;;
19111;SDS011;9688;51.906;8.376;2022-07-29T08:01:51;4.20;;;1.40;;
19111;SDS011;9688;51.906;8.376;2022-07-29T08:04:56;5.30;;;2.00;;
19111;SDS011;9688;51.906;8.376;2022-07-29T08:08:02;3.80;;;1.80;;
19111;SDS011;9688;51.906;8.376;2022-07-29T08:11:07;5.77;;;1.90;;
19111;SDS011;9688;51.906;8.376;2022-07-29T08:14:14;5.03;;;1.90;;
19111;SDS011;9688;51.906;8.376;2022-07-29T08:17:19;7.53;;;1.90;;
19111;SDS011;9688;51.906;8.376;2022-07-29T08:20:24;4.25;;;1.90;;
19111;SDS011;9688;51.906;8.376;2022-07-29T08:23:30;5.13;;;2.57;;
19111;SDS011;9688;51.906;8.376;2022-07-29T08:26:41;3.80;;;1.60;;
19111;SDS011;9688;51.906;8.376;2022-07-29T08:29:48;5.57;;;1.60;;
19111;SDS011;9688;51.906;8.376;2022-07-29T08:32:53;3.23;;;1.47;;
19111;SDS011;9688;51.906;8.376;2022-07-29T08:35:59;7.07;;;1.80;;
19111;SDS011;9688;51.906;8.376;2022-07-29T08:39:05;4.00;;;1.60;;
19111;SDS011;9688;51.906;8.376;2022-07-29T08:42:10;5.70;;;1.70;;
19111;SDS011;9688;51.906;8.376;2022-07-29T08:45:16;3.75;;;1.80;;
19111;SDS011;9688;51.906;8.376;2022-07-29T08:48:21;4.05;;;1.80;;
19111;SDS011;9688;51.906;8.376;2022-07-29T08:51:27;1.75;;;1.60;;
19111;SDS011;9688;51.906;8.376;2022-07-29T08:54:33;2.85;;;1.67;;
19111;SDS011;9688;51.906;8.376;2022-07-29T08:57:38;5.13;;;2.00;;
19111;SDS011;9688;51.906;8.376;2022-07-29T09:00:46;2.80;;;1.95;;
19111;SDS011;9688;51.906;8.376;2022-07-29T09:03:55;5.85;;;1.95;;
19111;SDS011;9688;51.906;8.376;2022-07-29T09:07:00;6.80;;;1.50;;
19111;SDS011;9688;51.906;8.376;2022-07-29T09:10:09;5.80;;;1.77;;
19111;SDS011;9688;51.906;8.376;2022-07-29T09:13:14;4.32;;;1.67;;
19111;SDS011;9688;51.906;8.376;2022-07-29T09:16:21;3.70;;;1.95;;
19111;SDS011;9688;51.906;8.376;2022-07-29T09:19:27;4.20;;;2.00;;
19111;SDS011;9688;51.906;8.376;2022-07-29T09:22:33;8.20;;;2.30;;
19111;SDS011;9688;51.906;8.376;2022-07-29T09:25:39;3.92;;;1.83;;
19111;SDS011;9688;51.906;8.376;2022-07-29T09:28:45;6.45;;;1.80;;
19111;SDS011;9688;51.906;8.376;2022-07-29T09:31:54;5.85;;;1.90;;
19111;SDS011;9688;51.906;8.376;2022-07-29T09:35:16;5.05;;;1.52;;
19111;SDS011;9688;51.906;8.376;2022-07-29T09:38:22;3.50;;;1.83;;
19111;SDS011;9688;51.906;8.376;2022-07-29T09:41:27;3.22;;;2.10;;
19111;SDS011;9688;51.906;8.376;2022-07-29T09:44:42;7.45;;;1.70;;
19111;SDS011;9688;51.906;8.376;2022-07-29T09:47:52;3.20;;;2.15;;
19111;SDS011;9688;51.906;8.376;2022-07-29T09:51:00;5.15;;;2.03;;
19111;SDS011;9688;51.906;8.376;2022-07-29T09:57:28;5.85;;;1.90;;
19111;SDS011;9688;51.906;8.376;2022-07-29T10:00:33;3.72;;;1.65;;
19111;SDS011;9688;51.906;8.376;2022-07-29T10:03:53;3.85;;;1.60;;
19111;SDS011;9688;51.906;8.376;2022-07-29T10:07:00;7.82;;;1.88;;
19111;SDS011;9688;51.906;8.376;2022-07-29T10:10:08;5.25;;;2.13;;
19111;SDS011;9688;51.906;8.376;2022-07-29T10:13:16;5.57;;;2.00;;
19111;SDS011;9688;51.906;8.376;2022-07-29T10:16:22;4.60;;;1.90;;
19111;SDS011;9688;51.906;8.376;2022-07-29T10:19:30;3.47;;;1.75;;
19111;SDS011;9688;51.906;8.376;2022-07-29T10:22:36;1.90;;;1.80;;
19111;SDS011;9688;51.906;8.376;2022-07-29T10:25:41;2.65;;;2.22;;
19111;SDS011;9688;51.906;8.376;2022-07-29T10:28:46;5.45;;;2.08;;
19111;SDS011;9688;51.906;8.376;2022-07-29T10:31:54;8.65;;;1.70;;
19111;SDS011;9688;51.906;8.376;2022-07-29T10:35:26;2.70;;;1.80;;
19111;SDS011;9688;51.906;8.376;2022-07-29T10:39:00;5.93;;;2.40;;
19111;SDS011;9688;51.906;8.376;2022-07-29T10:42:23;5.25;;;2.05;;
19111;SDS011;9688;51.906;8.376;2022-07-29T10:45:31;3.53;;;1.77;;
19111;SDS011;9688;51.906;8.376;2022-07-29T10:48:39;5.80;;;2.00;;
19111;SDS011;9688;51.906;8.376;2022-07-29T10:52:14;8.55;;;1.83;;
19111;SDS011;9688;51.906;8.376;2022-07-29T10:55:30;5.65;;;1.90;;
19111;SDS011;9688;51.906;8.376;2022-07-29T10:58:36;3.67;;;1.90;;
19111;SDS011;9688;51.906;8.376;2022-07-29T11:01:41;4.28;;;1.95;;
19111;SDS011;9688;51.906;8.376;2022-07-29T11:05:00;5.03;;;2.33;;
19111;SDS011;9688;51.906;8.376;2022-07-29T11:08:21;6.65;;;2.58;;
19111;SDS011;9688;51.906;8.376;2022-07-29T11:11:31;3.67;;;1.83;;
19111;SDS011;9688;51.906;8.376;2022-07-29T11:14:57;5.18;;;1.80;;
19111;SDS011;9688;51.906;8.376;2022-07-29T11:18:07;5.68;;;1.85;;
19111;SDS011;9688;51.906;8.376;2022-07-29T11:24:42;4.03;;;2.38;;
19111;SDS011;9688;51.906;8.376;2022-07-29T11:27:47;3.88;;;2.50;;
19111;SDS011;9688;51.906;8.376;2022-07-29T11:30:52;4.07;;;2.33;;
19111;SDS011;9688;51.906;8.376;2022-07-29T11:34:11;4.68;;;2.10;;
19111;SDS011;9688;51.906;8.376;2022-07-29T11:37:21;3.42;;;2.40;;
19111;SDS011;9688;51.906;8.376;2022-07-29T11:40:30;5.28;;;2.40;;
19111;SDS011;9688;51.906;8.376;2022-07-29T11:43:46;4.63;;;2.33;;
19111;SDS011;9688;51.906;8.376;2022-07-29T11:46:52;5.70;;;2.35;;
19111;SDS011;9688;51.906;8.376;2022-07-29T11:49:59;2.67;;;1.90;;
19111;SDS011;9688;51.906;8.376;2022-07-29T11:53:19;6.80;;;2.03;;
19111;SDS011;9688;51.906;8.376;2022-07-29T11:56:27;5.80;;;1.90;;
19111;SDS011;9688;51.906;8.376;2022-07-29T11:59:38;5.78;;;1.80;;
19111;SDS011;9688;51.906;8.376;2022-07-29T12:02:44;5.18;;;2.17;;
19111;SDS011;9688;51.906;8.376;2022-07-29T12:05:50;3.90;;;1.90;;
19111;SDS011;9688;51.906;8.376;2022-07-29T12:08:56;8.50;;;2.25;;
19111;SDS011;9688;51.906;8.376;2022-07-29T12:12:03;7.90;;;1.88;;
19111;SDS011;9688;51.906;8.376;2022-07-29T12:15:13;6.85;;;2.22;;
19111;SDS011;9688;51.906;8.376;2022-07-29T12:18:20;2.67;;;2.22;;
19111;SDS011;9688;51.906;8.376;2022-07-29T12:21:26;5.57;;;2.60;;
19111;SDS011;9688;51.906;8.376;2022-07-29T12:24:42;4.75;;;2.00;;
19111;SDS011;9688;51.906;8.376;2022-07-29T12:27:49;4.47;;;2.20;;
19111;SDS011;9688;51.906;8.376;2022-07-29T12:31:03;3.03;;;2.03;;
19111;SDS011;9688;51.906;8.376;2022-07-29T12:34:09;5.13;;;2.00;;
19111;SDS011;9688;51.906;8.376;2022-07-29T12:37:15;2.55;;;2.05;;
19111;SDS011;9688;51.906;8.376;2022-07-29T12:40:20;3.42;;;2.67;;
19111;SDS011;9688;51.906;8.376;2022-07-29T12:43:27;5.38;;;2.20;;
19111;SDS011;9688;51.906;8.376;2022-07-29T12:46:32;4.80;;;2.28;;
19111;SDS011;9688;51.906;8.376;2022-07-29T12:49:37;3.10;;;1.92;;
19111;SDS011;9688;51.906;8.376;2022-07-29T12:52:43;4.25;;;2.10;;
19111;SDS011;9688;51.906;8.376;2022-07-29T12:55:50;6.15;;;2.13;;
19111;SDS011;9688;51.906;8.376;2022-07-29T12:58:57;5.20;;;2.00;;
19111;SDS011;9688;51.906;8.376;2022-07-29T13:02:01;7.47;;;2.10;;
19111;SDS011;9688;51.906;8.376;2022-07-29T13:05:07;11.90;;;2.80;;
19111;SDS011;9688;51.906;8.376;2022-07-29T13:08:13;3.97;;;1.83;;
19111;SDS011;9688;51.906;8.376;2022-07-29T13:11:29;3.50;;;2.10;;
19111;SDS011;9688;51.906;8.376;2022-07-29T13:14:37;5.00;;;1.92;;
19111;SDS011;9688;51.906;8.376;2022-07-29T13:17:43;4.95;;;2.20;;
19111;SDS011;9688;51.906;8.376;2022-07-29T13:20:47;3.85;;;2.00;;
19111;SDS011;9688;51.906;8.376;2022-07-29T13:23:52;5.63;;;2.22;;
19111;SDS011;9688;51.906;8.376;2022-07-29T13:26:56;4.75;;;2.20;;
19111;SDS011;9688;51.906;8.376;2022-07-29T13:30:08;3.80;;;2.08;;
19111;SDS011;9688;51.906;8.376;2022-07-29T13:33:14;5.07;;;2.35;;
19111;SDS011;9688;51.906;8.376;2022-07-29T13:36:19;6.45;;;2.13;;
19111;SDS011;9688;51.906;8.376;2022-07-29T13:39:23;5.25;;;2.45;;
19111;SDS011;9688;51.906;8.376;2022-07-29T13:42:28;3.33;;;2.40;;
19111;SDS011;9688;51.906;8.376;2022-07-29T13:45:34;4.85;;;2.47;;
19111;SDS011;9688;51.906;8.376;2022-07-29T13:48:39;7.18;;;2.53;;
19111;SDS011;9688;51.906;8.376;2022-07-29T13:51:44;3.35;;;2.13;;
19111;SDS011;9688;51.906;8.376;2022-07-29T13:54:48;5.88;;;2.38;;
19111;SDS011;9688;51.906;8.376;2022-07-29T13:57:53;5.60;;;2.63;;
19111;SDS011;9688;51.906;8.376;2022-07-29T14:00:58;4.22;;;2.20;;
19111;SDS011;9688;51.906;8.376;2022-07-29T14:04:04;3.20;;;2.42;;
19111;SDS011;9688;51.906;8.376;2022-07-29T14:07:09;5.10;;;2.25;;
19111;SDS011;9688;51.906;8.376;2022-07-29T14:10:14;4.13;;;2.40;;
19111;SDS011;9688;51.906;8.376;2022-07-29T14:13:19;6.35;;;2.20;;
19111;SDS011;9688;51.906;8.376;2022-07-29T14:16:26;4.78;;;2.95;;
19111;SDS011;9688;51.906;8.376;2022-07-29T14:19:32;6.35;;;2.42;;
19111;SDS011;9688;51.906;8.376;2022-07-29T14:22:40;5.03;;;2.55;;
19111;SDS011;9688;51.906;8.376;2022-07-29T14:25:45;6.38;;;2.40;;
19111;SDS011;9688;51.906;8.376;2022-07-29T14:28:50;3.42;;;2.15;;
19111;SDS011;9688;51.906;8.376;2022-07-29T14:31:57;7.80;;;3.08;;
19111;SDS011;9688;51.906;8.376;2022-07-29T14:35:02;6.30;;;2.72;;
19111;SDS011;9688;51.906;8.376;2022-07-29T14:38:09;3.22;;;2.30;;
19111;SDS011;9688;51.906;8.376;2022-07-29T14:41:14;6.53;;;2.55;;
19111;SDS011;9688;51.906;8.376;2022-07-29T14:44:18;6.10;;;2.42;;
19111;SDS011;9688;51.906;8.376;2022-07-29T14:47:25;8.15;;;2.80;;
19111;SDS011;9688;51.906;8.376;2022-07-29T14:50:29;6.28;;;2.40;;
19111;SDS011;9688;51.906;8.376;2022-07-29T14:53:34;2.70;;;2.45;;
19111;SDS011;9688;51.906;8.376;2022-07-29T14:56:39;4.10;;;2.72;;
19111;SDS011;9688;51.906;8.376;2022-07-29T14:59:44;4.65;;;3.25;;
19111;SDS011;9688;51.906;8.376;2022-07-29T15:02:50;4.78;;;3.00;;
19111;SDS011;9688;51.906;8.376;2022-07-29T15:05:55;4.53;;;3.15;;
19111;SDS011;9688;51.906;8.376;2022-07-29T15:09:01;9.95;;;2.97;;
19111;SDS011;9688;51.906;8.376;2022-07-29T15:12:05;5.38;;;2.70;;
19111;SDS011;9688;51.906;8.376;2022-07-29T15:15:10;10.50;;;2.80;;
19111;SDS011;9688;51.906;8.376;2022-07-29T15:18:17;3.72;;;2.40;;
19111;SDS011;9688;51.906;8.376;2022-07-29T15:21:21;12.38;;;2.83;;
19111;SDS011;9688;51.906;8.376;2022-07-29T15:24:26;5.40;;;2.50;;
19111;SDS011;9688;51.906;8.376;2022-07-29T15:27:32;4.43;;;2.67;;
19111;SDS011;9688;51.906;8.376;2022-07-29T15:30:37;9.40;;;2.70;;
19111;SDS011;9688;51.906;8.376;2022-07-29T15:33:46;8.55;;;2.95;;
19111;SDS011;9688;51.906;8.376;2022-07-29T15:36:51;6.30;;;2.53;;
19111;SDS011;9688;51.906;8.376;2022-07-29T15:39:56;10.88;;;2.70;;
19111;SDS011;9688;51.906;8.376;2022-07-29T15:43:03;6.47;;;2.80;;
19111;SDS011;9688;51.906;8.376;2022-07-29T15:46:12;9.00;;;2.67;;
19111;SDS011;9688;51.906;8.376;2022-07-29T15:49:39;8.23;;;2.90;;
19111;SDS011;9688;51.906;8.376;2022-07-29T15:52:47;4.57;;;2.50;;
19111;SDS011;9688;51.906;8.376;2022-07-29T15:55:51;11.63;;;3.08;;
19111;SDS011;9688;51.906;8.376;2022-07-29T15:58:56;7.10;;;2.60;;
19111;SDS011;9688;51.906;8.376;2022-07-29T16:02:01;7.00;;;2.80;;
19111;SDS011;9688;51.906;8.376;2022-07-29T16:05:09;7.28;;;2.75;;
19111;SDS011;9688;51.906;8.376;2022-07-29T16:08:14;6.15;;;2.38;;
19111;SDS011;9688;51.906;8.376;2022-07-29T16:11:22;7.20;;;2.20;;
19111;SDS011;9688;51.906;8.376;2022-07-29T16:14:29;8.73;;;2.80;;
19111;SDS011;9688;51.906;8.376;2022-07-29T16:17:36;13.55;;;2.42;;
19111;SDS011;9688;51.906;8.376;2022-07-29T16:20:43;2.53;;;2.10;;
19111;SDS011;9688;51.906;8.376;2022-07-29T16:23:48;9.10;;;2.15;;
19111;SDS011;9688;51.906;8.376;2022-07-29T16:26:56;7.05;;;2.53;;
19111;SDS011;9688;51.906;8.376;2022-07-29T16:30:06;9.27;;;2.65;;
19111;SDS011;9688;51.906;8.376;2022-07-29T16:33:14;6.53;;;2.35;;
19111;SDS011;9688;51.906;8.376;2022-07-29T16:36:20;8.43;;;2.60;;
19111;SDS011;9688;51.906;8.376;2022-07-29T16:39:25;8.73;;;2.90;;
19111;SDS011;9688;51.906;8.376;2022-07-29T16:42:29;3.22;;;2.30;;
19111;SDS011;9688;51.906;8.376;2022-07-29T16:45:33;5.70;;;2.63;;
19111;SDS011;9688;51.906;8.376;2022-07-29T16:48:38;7.38;;;2.35;;
19111;SDS011;9688;51.906;8.376;2022-07-29T16:51:44;9.38;;;3.03;;
19111;SDS011;9688;51.906;8.376;2022-07-29T16:54:50;4.68;;;2.20;;
19111;SDS011;9688;51.906;8.376;2022-07-29T16:57:54;7.00;;;2.60;;
19111;SDS011;9688;51.906;8.376;2022-07-29T17:00:59;8.50;;;2.30;;
19111;SDS011;9688;51.906;8.376;2022-07-29T17:04:04;4.70;;;2.50;;
19111;SDS011;9688;51.906;8.376;2022-07-29T17:07:10;4.40;;;2.40;;
19111;SDS011;9688;51.906;8.376;2022-07-29T17:10:15;5.30;;;2.40;;
19111;SDS011;9688;51.906;8.376;2022-07-29T17:13:20;4.20;;;2.65;;
19111;SDS011;9688;51.906;8.376;2022-07-29T17:16:24;5.05;;;2.63;;
19111;SDS011;9688;51.906;8.376;2022-07-29T17:19:30;5.93;;;2.80;;
19111;SDS011;9688;51.906;8.376;2022-07-29T17:22:38;6.35;;;2.92;;
19111;SDS011;9688;51.906;8.376;2022-07-29T17:25:45;7.97;;;2.80;;
19111;SDS011;9688;51.906;8.376;2022-07-29T17:28:50;7.72;;;2.60;;
19111;SDS011;9688;51.906;8.376;2022-07-29T17:31:55;6.57;;;2.85;;
19111;SDS011;9688;51.906;8.376;2022-07-29T17:35:01;6.97;;;3.15;;
19111;SDS011;9688;51.906;8.376;2022-07-29T17:38:28;6.90;;;2.90;;
19111;SDS011;9688;51.906;8.376;2022-07-29T17:41:32;7.95;;;3.17;;
19111;SDS011;9688;51.906;8.376;2022-07-29T17:44:37;8.13;;;3.30;;
19111;SDS011;9688;51.906;8.376;2022-07-29T17:47:42;6.33;;;3.50;;
19111;SDS011;9688;51.906;8.376;2022-07-29T17:50:48;5.95;;;3.55;;
19111;SDS011;9688;51.906;8.376;2022-07-29T17:53:54;8.90;;;3.22;;
19111;SDS011;9688;51.906;8.376;2022-07-29T17:57:00;5.35;;;3.33;;
19111;SDS011;9688;51.906;8.376;2022-07-29T18:00:05;10.67;;;3.50;;
19111;SDS011;9688;51.906;8.376;2022-07-29T18:03:11;8.43;;;4.30;;
19111;SDS011;9688;51.906;8.376;2022-07-29T18:06:15;11.20;;;4.00;;
19111;SDS011;9688;51.906;8.376;2022-07-29T18:09:22;7.72;;;4.03;;
19111;SDS011;9688;51.906;8.376;2022-07-29T18:12:26;8.47;;;3.80;;
19111;SDS011;9688;51.906;8.376;2022-07-29T18:15:31;10.40;;;4.13;;
19111;SDS011;9688;51.906;8.376;2022-07-29T18:18:36;9.03;;;3.67;;
19111;SDS011;9688;51.906;8.376;2022-07-29T18:21:41;7.60;;;4.20;;
19111;SDS011;9688;51.906;8.376;2022-07-29T18:24:47;11.43;;;3.90;;
19111;SDS011;9688;51.906;8.376;2022-07-29T18:27:51;8.15;;;4.20;;
19111;SDS011;9688;51.906;8.376;2022-07-29T18:30:57;8.87;;;4.40;;
19111;SDS011;9688;51.906;8.376;2022-07-29T18:34:02;7.30;;;4.70;;
19111;SDS011;9688;51.906;8.376;2022-07-29T18:37:07;8.63;;;4.57;;
19111;SDS011;9688;51.906;8.376;2022-07-29T18:40:15;7.93;;;5.37;;
19111;SDS011;9688;51.906;8.376;2022-07-29T18:43:22;10.70;;;5.23;;
19111;SDS011;9688;51.906;8.376;2022-07-29T18:46:27;11.07;;;5.53;;
19111;SDS011;9688;51.906;8.376;2022-07-29T18:49:32;9.73;;;4.60;;
19111;SDS011;9688;51.906;8.376;2022-07-29T18:52:36;9.40;;;4.53;;
19111;SDS011;9688;51.906;8.376;2022-07-29T18:55:43;10.50;;;4.43;;
19111;SDS011;9688;51.906;8.376;2022-07-29T18:58:48;10.40;;;4.97;;
19111;SDS011;9688;51.906;8.376;2022-07-29T19:01:53;14.33;;;4.40;;
19111;SDS011;9688;51.906;8.376;2022-07-29T19:04:57;9.13;;;5.57;;
19111;SDS011;9688;51.906;8.376;2022-07-29T19:08:02;10.00;;;6.10;;
19111;SDS011;9688;51.906;8.376;2022-07-29T19:11:09;11.77;;;4.70;;